sensor_id;sensor_type;location;lat;lon;timestamp;P1;durP1;ratioP1;P2;durP2;ratioP2
80536;SDS011;69867;47.074;15.404;2023-12-20T00:00:54;7.82;;;2.75;;
80536;SDS011;69867;47.074;15.404;2023-12-20T00:03:19;5.95;;;2.60;;
80536;SDS011;69867;47.074;15.404;2023-12-20T00:05:45;6.43;;;2.63;;
80536;SDS011;69867;47.074;15.404;2023-12-20T00:08:11;6.32;;;2.78;;
80536;SDS011;69867;47.074;15.404;2023-12-20T00:10:36;7.57;;;2.97;;
80536;SDS011;69867;47.074;15.404;2023-12-20T00:13:01;7.55;;;2.95;;
80536;SDS011;69867;47.074;15.404;2023-12-20T00:15:27;6.18;;;2.90;;
80536;SDS011;69867;47.074;15.404;2023-12-20T00:17:52;8.27;;;2.97;;
80536;SDS011;69867;47.074;15.404;2023-12-20T00:20:17;5.28;;;3.25;;
80536;SDS011;69867;47.074;15.404;2023-12-20T00:22:43;8.32;;;3.58;;
80536;SDS011;69867;47.074;15.404;2023-12-20T00:25:08;8.02;;;3.75;;
80536;SDS011;69867;47.074;15.404;2023-12-20T00:27:33;7.43;;;3.40;;
80536;SDS011;69867;47.074;15.404;2023-12-20T00:29:59;7.32;;;2.92;;
80536;SDS011;69867;47.074;15.404;2023-12-20T00:32:24;9.05;;;3.35;;
80536;SDS011;69867;47.074;15.404;2023-12-20T00:34:49;8.05;;;3.20;;
80536;SDS011;69867;47.074;15.404;2023-12-20T00:37:15;6.85;;;2.70;;
80536;SDS011;69867;47.074;15.404;2023-12-20T00:39:40;6.72;;;2.65;;
80536;SDS011;69867;47.074;15.404;2023-12-20T00:42:05;7.47;;;3.20;;
80536;SDS011;69867;47.074;15.404;2023-12-20T00:44:31;6.47;;;2.70;;
80536;SDS011;69867;47.074;15.404;2023-12-20T00:46:57;7.35;;;3.17;;
80536;SDS011;69867;47.074;15.404;2023-12-20T00:49:22;7.15;;;3.35;;
80536;SDS011;69867;47.074;15.404;2023-12-20T00:51:47;5.57;;;2.92;;
80536;SDS011;69867;47.074;15.404;2023-12-20T00:54:13;6.93;;;3.15;;
80536;SDS011;69867;47.074;15.404;2023-12-20T00:56:38;7.05;;;2.65;;
80536;SDS011;69867;47.074;15.404;2023-12-20T00:59:03;6.10;;;3.13;;
80536;SDS011;69867;47.074;15.404;2023-12-20T01:01:29;6.18;;;2.90;;
80536;SDS011;69867;47.074;15.404;2023-12-20T01:03:54;8.18;;;2.90;;
80536;SDS011;69867;47.074;15.404;2023-12-20T01:06:19;6.13;;;3.00;;
80536;SDS011;69867;47.074;15.404;2023-12-20T01:08:45;7.28;;;3.58;;
80536;SDS011;69867;47.074;15.404;2023-12-20T01:11:10;7.57;;;3.17;;
80536;SDS011;69867;47.074;15.404;2023-12-20T01:13:35;6.78;;;3.22;;
80536;SDS011;69867;47.074;15.404;2023-12-20T01:16:01;9.20;;;3.70;;
80536;SDS011;69867;47.074;15.404;2023-12-20T01:18:26;6.93;;;3.03;;
80536;SDS011;69867;47.074;15.404;2023-12-20T01:20:52;9.25;;;3.42;;
80536;SDS011;69867;47.074;15.404;2023-12-20T01:23:17;8.70;;;3.10;;
80536;SDS011;69867;47.074;15.404;2023-12-20T01:25:42;6.82;;;3.20;;
80536;SDS011;69867;47.074;15.404;2023-12-20T01:28:08;11.85;;;3.67;;
80536;SDS011;69867;47.074;15.404;2023-12-20T01:30:33;6.85;;;3.40;;
80536;SDS011;69867;47.074;15.404;2023-12-20T01:32:59;10.30;;;3.83;;
80536;SDS011;69867;47.074;15.404;2023-12-20T01:35:25;6.35;;;2.95;;
80536;SDS011;69867;47.074;15.404;2023-12-20T01:37:50;9.60;;;3.50;;
80536;SDS011;69867;47.074;15.404;2023-12-20T01:40:15;8.10;;;3.95;;
80536;SDS011;69867;47.074;15.404;2023-12-20T01:42:41;7.88;;;4.03;;
80536;SDS011;69867;47.074;15.404;2023-12-20T01:45:06;8.82;;;3.58;;
80536;SDS011;69867;47.074;15.404;2023-12-20T01:47:32;12.05;;;4.43;;
80536;SDS011;69867;47.074;15.404;2023-12-20T01:49:57;8.98;;;3.95;;
80536;SDS011;69867;47.074;15.404;2023-12-20T01:52:23;9.95;;;3.83;;
80536;SDS011;69867;47.074;15.404;2023-12-20T01:54:50;9.07;;;4.15;;
80536;SDS011;69867;47.074;15.404;2023-12-20T01:57:16;8.93;;;4.57;;
80536;SDS011;69867;47.074;15.404;2023-12-20T01:59:41;8.32;;;4.00;;
80536;SDS011;69867;47.074;15.404;2023-12-20T02:02:07;14.77;;;4.72;;
80536;SDS011;69867;47.074;15.404;2023-12-20T02:04:32;9.68;;;4.25;;
80536;SDS011;69867;47.074;15.404;2023-12-20T02:06:58;11.13;;;5.03;;
80536;SDS011;69867;47.074;15.404;2023-12-20T02:09:24;13.15;;;3.95;;
80536;SDS011;69867;47.074;15.404;2023-12-20T02:11:49;8.35;;;4.07;;
80536;SDS011;69867;47.074;15.404;2023-12-20T02:14:14;11.38;;;4.60;;
80536;SDS011;69867;47.074;15.404;2023-12-20T02:16:40;9.57;;;4.53;;
80536;SDS011;69867;47.074;15.404;2023-12-20T02:19:06;11.60;;;5.68;;
80536;SDS011;69867;47.074;15.404;2023-12-20T02:21:38;8.57;;;4.82;;
80536;SDS011;69867;47.074;15.404;2023-12-20T02:24:03;10.55;;;4.68;;
80536;SDS011;69867;47.074;15.404;2023-12-20T02:26:29;13.35;;;4.63;;
80536;SDS011;69867;47.074;15.404;2023-12-20T02:28:54;10.32;;;4.10;;
80536;SDS011;69867;47.074;15.404;2023-12-20T02:31:23;11.30;;;4.80;;
80536;SDS011;69867;47.074;15.404;2023-12-20T02:33:48;13.70;;;5.28;;
80536;SDS011;69867;47.074;15.404;2023-12-20T02:36:14;9.98;;;4.20;;
80536;SDS011;69867;47.074;15.404;2023-12-20T02:38:39;10.10;;;4.55;;
80536;SDS011;69867;47.074;15.404;2023-12-20T02:41:04;11.40;;;5.23;;
80536;SDS011;69867;47.074;15.404;2023-12-20T02:43:29;12.75;;;4.70;;
80536;SDS011;69867;47.074;15.404;2023-12-20T02:45:55;11.57;;;4.75;;
80536;SDS011;69867;47.074;15.404;2023-12-20T02:48:20;11.77;;;4.28;;
80536;SDS011;69867;47.074;15.404;2023-12-20T02:50:46;9.00;;;4.32;;
80536;SDS011;69867;47.074;15.404;2023-12-20T02:53:13;10.73;;;4.80;;
80536;SDS011;69867;47.074;15.404;2023-12-20T02:55:38;11.93;;;5.38;;
80536;SDS011;69867;47.074;15.404;2023-12-20T02:58:03;8.73;;;3.90;;
80536;SDS011;69867;47.074;15.404;2023-12-20T03:00:29;9.57;;;3.95;;
80536;SDS011;69867;47.074;15.404;2023-12-20T03:02:54;9.93;;;4.28;;
80536;SDS011;69867;47.074;15.404;2023-12-20T03:05:19;12.52;;;4.32;;
80536;SDS011;69867;47.074;15.404;2023-12-20T03:07:45;9.15;;;5.07;;
80536;SDS011;69867;47.074;15.404;2023-12-20T03:10:10;12.15;;;4.93;;
80536;SDS011;69867;47.074;15.404;2023-12-20T03:12:35;10.90;;;4.80;;
80536;SDS011;69867;47.074;15.404;2023-12-20T03:15:01;13.13;;;5.80;;
80536;SDS011;69867;47.074;15.404;2023-12-20T03:17:26;13.65;;;6.32;;
80536;SDS011;69867;47.074;15.404;2023-12-20T03:19:52;13.33;;;5.67;;
80536;SDS011;69867;47.074;15.404;2023-12-20T03:22:17;10.75;;;4.95;;
80536;SDS011;69867;47.074;15.404;2023-12-20T03:24:42;12.98;;;5.57;;
80536;SDS011;69867;47.074;15.404;2023-12-20T03:27:08;13.23;;;5.45;;
80536;SDS011;69867;47.074;15.404;2023-12-20T03:29:33;12.00;;;5.15;;
80536;SDS011;69867;47.074;15.404;2023-12-20T03:31:58;12.02;;;5.13;;
80536;SDS011;69867;47.074;15.404;2023-12-20T03:34:24;16.00;;;5.78;;
80536;SDS011;69867;47.074;15.404;2023-12-20T03:36:49;10.75;;;5.35;;
80536;SDS011;69867;47.074;15.404;2023-12-20T03:39:14;12.43;;;5.88;;
80536;SDS011;69867;47.074;15.404;2023-12-20T03:41:40;12.20;;;5.55;;
80536;SDS011;69867;47.074;15.404;2023-12-20T03:44:05;13.07;;;4.80;;
80536;SDS011;69867;47.074;15.404;2023-12-20T03:46:30;11.40;;;5.65;;
80536;SDS011;69867;47.074;15.404;2023-12-20T03:48:56;10.85;;;4.95;;
80536;SDS011;69867;47.074;15.404;2023-12-20T03:51:21;13.95;;;5.70;;
80536;SDS011;69867;47.074;15.404;2023-12-20T03:53:46;11.60;;;5.35;;
80536;SDS011;69867;47.074;15.404;2023-12-20T03:56:11;11.23;;;5.90;;
80536;SDS011;69867;47.074;15.404;2023-12-20T03:58:37;11.85;;;5.15;;
80536;SDS011;69867;47.074;15.404;2023-12-20T04:01:02;9.82;;;4.47;;
80536;SDS011;69867;47.074;15.404;2023-12-20T04:03:28;15.25;;;5.13;;
80536;SDS011;69867;47.074;15.404;2023-12-20T04:05:53;11.52;;;4.70;;
80536;SDS011;69867;47.074;15.404;2023-12-20T04:08:18;10.77;;;4.63;;
80536;SDS011;69867;47.074;15.404;2023-12-20T04:10:43;11.95;;;5.60;;
80536;SDS011;69867;47.074;15.404;2023-12-20T04:13:09;10.13;;;5.22;;
80536;SDS011;69867;47.074;15.404;2023-12-20T04:15:34;13.48;;;6.07;;
80536;SDS011;69867;47.074;15.404;2023-12-20T04:17:59;10.63;;;4.43;;
80536;SDS011;69867;47.074;15.404;2023-12-20T04:20:25;12.75;;;4.78;;
80536;SDS011;69867;47.074;15.404;2023-12-20T04:22:51;11.52;;;3.75;;
80536;SDS011;69867;47.074;15.404;2023-12-20T04:25:16;12.48;;;4.65;;
80536;SDS011;69867;47.074;15.404;2023-12-20T04:27:41;11.75;;;4.65;;
80536;SDS011;69867;47.074;15.404;2023-12-20T04:30:07;10.73;;;5.43;;
80536;SDS011;69867;47.074;15.404;2023-12-20T04:32:32;14.05;;;4.90;;
80536;SDS011;69867;47.074;15.404;2023-12-20T04:34:58;15.75;;;5.85;;
80536;SDS011;69867;47.074;15.404;2023-12-20T04:37:23;9.30;;;4.03;;
80536;SDS011;69867;47.074;15.404;2023-12-20T04:39:49;9.52;;;5.07;;
80536;SDS011;69867;47.074;15.404;2023-12-20T04:42:14;9.13;;;4.22;;
80536;SDS011;69867;47.074;15.404;2023-12-20T04:44:39;10.98;;;4.05;;
80536;SDS011;69867;47.074;15.404;2023-12-20T04:47:04;9.68;;;4.07;;
80536;SDS011;69867;47.074;15.404;2023-12-20T04:49:30;9.75;;;4.18;;
80536;SDS011;69867;47.074;15.404;2023-12-20T04:51:55;7.18;;;3.83;;
80536;SDS011;69867;47.074;15.404;2023-12-20T04:54:20;8.45;;;3.75;;
80536;SDS011;69867;47.074;15.404;2023-12-20T04:56:46;15.13;;;4.97;;
80536;SDS011;69867;47.074;15.404;2023-12-20T04:59:11;10.55;;;4.72;;
80536;SDS011;69867;47.074;15.404;2023-12-20T05:01:37;12.45;;;4.35;;
80536;SDS011;69867;47.074;15.404;2023-12-20T05:04:02;11.97;;;4.93;;
80536;SDS011;69867;47.074;15.404;2023-12-20T05:06:27;10.15;;;4.97;;
80536;SDS011;69867;47.074;15.404;2023-12-20T05:08:52;12.70;;;6.00;;
80536;SDS011;69867;47.074;15.404;2023-12-20T05:11:18;11.32;;;4.25;;
80536;SDS011;69867;47.074;15.404;2023-12-20T05:13:43;12.88;;;4.40;;
80536;SDS011;69867;47.074;15.404;2023-12-20T05:16:08;9.90;;;4.43;;
80536;SDS011;69867;47.074;15.404;2023-12-20T05:18:34;11.13;;;4.55;;
80536;SDS011;69867;47.074;15.404;2023-12-20T05:20:59;11.32;;;4.70;;
80536;SDS011;69867;47.074;15.404;2023-12-20T05:23:25;11.45;;;3.80;;
80536;SDS011;69867;47.074;15.404;2023-12-20T05:25:50;11.57;;;5.03;;
80536;SDS011;69867;47.074;15.404;2023-12-20T05:28:15;13.68;;;5.18;;
80536;SDS011;69867;47.074;15.404;2023-12-20T05:30:41;7.78;;;3.80;;
80536;SDS011;69867;47.074;15.404;2023-12-20T05:33:06;14.15;;;5.40;;
80536;SDS011;69867;47.074;15.404;2023-12-20T05:35:31;8.65;;;4.47;;
80536;SDS011;69867;47.074;15.404;2023-12-20T05:37:56;12.88;;;5.00;;
80536;SDS011;69867;47.074;15.404;2023-12-20T05:40:22;11.68;;;5.20;;
80536;SDS011;69867;47.074;15.404;2023-12-20T05:42:47;14.23;;;5.10;;
80536;SDS011;69867;47.074;15.404;2023-12-20T05:45:12;12.45;;;5.78;;
80536;SDS011;69867;47.074;15.404;2023-12-20T05:47:39;8.63;;;4.35;;
80536;SDS011;69867;47.074;15.404;2023-12-20T05:50:04;9.75;;;4.60;;
80536;SDS011;69867;47.074;15.404;2023-12-20T05:52:30;13.77;;;5.93;;
80536;SDS011;69867;47.074;15.404;2023-12-20T05:54:55;12.27;;;5.22;;
80536;SDS011;69867;47.074;15.404;2023-12-20T05:57:21;10.73;;;4.82;;
80536;SDS011;69867;47.074;15.404;2023-12-20T05:59:46;10.63;;;4.65;;
80536;SDS011;69867;47.074;15.404;2023-12-20T06:02:11;10.30;;;4.90;;
80536;SDS011;69867;47.074;15.404;2023-12-20T06:04:37;9.82;;;4.10;;
80536;SDS011;69867;47.074;15.404;2023-12-20T06:07:06;11.00;;;5.03;;
80536;SDS011;69867;47.074;15.404;2023-12-20T06:09:32;9.88;;;4.70;;
80536;SDS011;69867;47.074;15.404;2023-12-20T06:11:57;15.18;;;6.40;;
80536;SDS011;69867;47.074;15.404;2023-12-20T06:14:22;12.80;;;5.15;;
80536;SDS011;69867;47.074;15.404;2023-12-20T06:16:48;9.77;;;4.28;;
80536;SDS011;69867;47.074;15.404;2023-12-20T06:19:13;13.40;;;5.78;;
80536;SDS011;69867;47.074;15.404;2023-12-20T06:21:38;17.33;;;5.88;;
80536;SDS011;69867;47.074;15.404;2023-12-20T06:24:04;16.25;;;6.00;;
80536;SDS011;69867;47.074;15.404;2023-12-20T06:26:29;14.50;;;6.38;;
80536;SDS011;69867;47.074;15.404;2023-12-20T06:28:54;15.07;;;7.57;;
80536;SDS011;69867;47.074;15.404;2023-12-20T06:31:20;15.13;;;6.80;;
80536;SDS011;69867;47.074;15.404;2023-12-20T06:33:46;12.98;;;5.50;;
80536;SDS011;69867;47.074;15.404;2023-12-20T06:36:11;11.20;;;5.07;;
80536;SDS011;69867;47.074;15.404;2023-12-20T06:38:37;14.32;;;5.72;;
80536;SDS011;69867;47.074;15.404;2023-12-20T06:41:03;12.02;;;5.18;;
80536;SDS011;69867;47.074;15.404;2023-12-20T06:43:28;9.88;;;4.88;;
80536;SDS011;69867;47.074;15.404;2023-12-20T06:45:53;11.70;;;4.68;;
80536;SDS011;69867;47.074;15.404;2023-12-20T06:48:19;11.13;;;4.82;;
80536;SDS011;69867;47.074;15.404;2023-12-20T06:50:44;15.63;;;7.13;;
80536;SDS011;69867;47.074;15.404;2023-12-20T06:53:09;15.37;;;6.97;;
80536;SDS011;69867;47.074;15.404;2023-12-20T06:55:35;12.95;;;5.95;;
80536;SDS011;69867;47.074;15.404;2023-12-20T06:58:01;12.57;;;5.88;;
80536;SDS011;69867;47.074;15.404;2023-12-20T07:00:26;15.13;;;7.05;;
80536;SDS011;69867;47.074;15.404;2023-12-20T07:02:52;17.42;;;6.65;;
80536;SDS011;69867;47.074;15.404;2023-12-20T07:05:17;14.52;;;6.50;;
80536;SDS011;69867;47.074;15.404;2023-12-20T07:07:42;12.13;;;6.35;;
80536;SDS011;69867;47.074;15.404;2023-12-20T07:10:08;15.27;;;6.32;;
80536;SDS011;69867;47.074;15.404;2023-12-20T07:12:33;14.98;;;7.07;;
80536;SDS011;69867;47.074;15.404;2023-12-20T07:14:59;17.90;;;7.40;;
80536;SDS011;69867;47.074;15.404;2023-12-20T07:17:24;13.85;;;5.68;;
80536;SDS011;69867;47.074;15.404;2023-12-20T07:19:49;14.73;;;6.35;;
80536;SDS011;69867;47.074;15.404;2023-12-20T07:22:15;20.77;;;7.88;;
80536;SDS011;69867;47.074;15.404;2023-12-20T07:24:40;17.45;;;7.30;;
80536;SDS011;69867;47.074;15.404;2023-12-20T07:27:06;13.18;;;6.10;;
80536;SDS011;69867;47.074;15.404;2023-12-20T07:29:31;13.95;;;6.20;;
80536;SDS011;69867;47.074;15.404;2023-12-20T07:31:56;13.23;;;5.65;;
80536;SDS011;69867;47.074;15.404;2023-12-20T07:34:22;11.82;;;6.03;;
80536;SDS011;69867;47.074;15.404;2023-12-20T07:36:47;10.75;;;5.57;;
80536;SDS011;69867;47.074;15.404;2023-12-20T07:39:13;17.10;;;6.57;;
80536;SDS011;69867;47.074;15.404;2023-12-20T07:41:39;12.25;;;5.80;;
80536;SDS011;69867;47.074;15.404;2023-12-20T07:44:04;15.75;;;5.88;;
80536;SDS011;69867;47.074;15.404;2023-12-20T07:46:30;11.45;;;5.38;;
80536;SDS011;69867;47.074;15.404;2023-12-20T07:48:55;13.95;;;6.10;;
80536;SDS011;69867;47.074;15.404;2023-12-20T07:51:20;13.98;;;5.70;;
80536;SDS011;69867;47.074;15.404;2023-12-20T07:53:46;12.10;;;6.13;;
80536;SDS011;69867;47.074;15.404;2023-12-20T07:56:15;12.60;;;5.72;;
80536;SDS011;69867;47.074;15.404;2023-12-20T07:58:41;13.68;;;5.82;;
80536;SDS011;69867;47.074;15.404;2023-12-20T08:01:07;13.00;;;5.72;;
80536;SDS011;69867;47.074;15.404;2023-12-20T08:03:32;11.65;;;5.55;;
80536;SDS011;69867;47.074;15.404;2023-12-20T08:05:57;16.65;;;5.90;;
80536;SDS011;69867;47.074;15.404;2023-12-20T08:08:23;17.00;;;6.13;;
80536;SDS011;69867;47.074;15.404;2023-12-20T08:10:48;9.23;;;5.03;;
80536;SDS011;69867;47.074;15.404;2023-12-20T08:13:14;11.85;;;5.93;;
80536;SDS011;69867;47.074;15.404;2023-12-20T08:15:39;13.27;;;5.93;;
80536;SDS011;69867;47.074;15.404;2023-12-20T08:18:04;10.40;;;5.78;;
80536;SDS011;69867;47.074;15.404;2023-12-20T08:20:30;12.15;;;6.07;;
80536;SDS011;69867;47.074;15.404;2023-12-20T08:22:55;12.82;;;5.10;;
80536;SDS011;69867;47.074;15.404;2023-12-20T08:25:20;11.07;;;5.05;;
80536;SDS011;69867;47.074;15.404;2023-12-20T08:27:46;13.50;;;5.40;;
80536;SDS011;69867;47.074;15.404;2023-12-20T08:30:11;12.57;;;5.83;;
80536;SDS011;69867;47.074;15.404;2023-12-20T08:32:37;11.52;;;5.43;;
80536;SDS011;69867;47.074;15.404;2023-12-20T08:35:02;10.45;;;5.03;;
80536;SDS011;69867;47.074;15.404;2023-12-20T08:37:28;13.48;;;5.57;;
80536;SDS011;69867;47.074;15.404;2023-12-20T08:39:54;12.48;;;5.55;;
80536;SDS011;69867;47.074;15.404;2023-12-20T08:42:19;12.00;;;5.30;;
80536;SDS011;69867;47.074;15.404;2023-12-20T08:44:44;10.48;;;5.20;;
80536;SDS011;69867;47.074;15.404;2023-12-20T08:47:10;11.90;;;5.70;;
80536;SDS011;69867;47.074;15.404;2023-12-20T08:49:35;9.15;;;5.40;;
80536;SDS011;69867;47.074;15.404;2023-12-20T08:52:00;13.27;;;6.07;;
80536;SDS011;69867;47.074;15.404;2023-12-20T08:54:26;11.02;;;5.68;;
80536;SDS011;69867;47.074;15.404;2023-12-20T08:56:51;12.43;;;6.10;;
80536;SDS011;69867;47.074;15.404;2023-12-20T08:59:17;10.23;;;5.47;;
80536;SDS011;69867;47.074;15.404;2023-12-20T09:01:42;10.50;;;5.47;;
80536;SDS011;69867;47.074;15.404;2023-12-20T09:04:07;11.43;;;6.35;;
80536;SDS011;69867;47.074;15.404;2023-12-20T09:06:33;10.30;;;5.75;;
80536;SDS011;69867;47.074;15.404;2023-12-20T09:08:58;11.90;;;5.68;;
80536;SDS011;69867;47.074;15.404;2023-12-20T09:11:23;13.05;;;5.07;;
80536;SDS011;69867;47.074;15.404;2023-12-20T09:13:49;9.05;;;4.75;;
80536;SDS011;69867;47.074;15.404;2023-12-20T09:16:14;13.23;;;5.70;;
80536;SDS011;69867;47.074;15.404;2023-12-20T09:18:40;12.23;;;4.93;;
80536;SDS011;69867;47.074;15.404;2023-12-20T09:21:05;12.63;;;6.03;;
80536;SDS011;69867;47.074;15.404;2023-12-20T09:23:30;13.40;;;6.93;;
80536;SDS011;69867;47.074;15.404;2023-12-20T09:25:56;12.63;;;6.10;;
80536;SDS011;69867;47.074;15.404;2023-12-20T09:28:21;12.27;;;6.13;;
80536;SDS011;69867;47.074;15.404;2023-12-20T09:30:46;14.52;;;6.93;;
80536;SDS011;69867;47.074;15.404;2023-12-20T09:33:12;14.38;;;7.40;;
80536;SDS011;69867;47.074;15.404;2023-12-20T09:35:37;15.60;;;7.75;;
80536;SDS011;69867;47.074;15.404;2023-12-20T09:38:02;15.40;;;7.10;;
80536;SDS011;69867;47.074;15.404;2023-12-20T09:40:28;17.75;;;7.10;;
80536;SDS011;69867;47.074;15.404;2023-12-20T09:42:57;13.65;;;7.00;;
80536;SDS011;69867;47.074;15.404;2023-12-20T09:45:28;14.02;;;7.05;;
80536;SDS011;69867;47.074;15.404;2023-12-20T09:47:55;14.43;;;7.20;;
80536;SDS011;69867;47.074;15.404;2023-12-20T09:50:22;18.42;;;7.88;;
80536;SDS011;69867;47.074;15.404;2023-12-20T09:52:52;17.90;;;7.72;;
80536;SDS011;69867;47.074;15.404;2023-12-20T09:55:18;17.17;;;8.40;;
80536;SDS011;69867;47.074;15.404;2023-12-20T09:57:45;26.58;;;10.52;;
80536;SDS011;69867;47.074;15.404;2023-12-20T10:00:12;16.52;;;9.20;;
80536;SDS011;69867;47.074;15.404;2023-12-20T10:02:38;16.98;;;8.55;;
80536;SDS011;69867;47.074;15.404;2023-12-20T10:05:10;16.50;;;8.48;;
80536;SDS011;69867;47.074;15.404;2023-12-20T10:10:07;16.67;;;7.90;;
80536;SDS011;69867;47.074;15.404;2023-12-20T10:12:32;14.10;;;7.82;;
80536;SDS011;69867;47.074;15.404;2023-12-20T10:14:58;18.38;;;8.70;;
80536;SDS011;69867;47.074;15.404;2023-12-20T10:17:23;20.17;;;9.50;;
80536;SDS011;69867;47.074;15.404;2023-12-20T10:19:48;19.33;;;9.25;;
80536;SDS011;69867;47.074;15.404;2023-12-20T10:22:14;19.95;;;9.90;;
80536;SDS011;69867;47.074;15.404;2023-12-20T10:24:40;16.20;;;8.80;;
80536;SDS011;69867;47.074;15.404;2023-12-20T10:27:06;18.85;;;9.40;;
80536;SDS011;69867;47.074;15.404;2023-12-20T10:29:35;20.67;;;9.00;;
80536;SDS011;69867;47.074;15.404;2023-12-20T10:34:52;23.48;;;10.55;;
80536;SDS011;69867;47.074;15.404;2023-12-20T10:37:20;26.10;;;11.02;;
80536;SDS011;69867;47.074;15.404;2023-12-20T10:39:49;24.15;;;11.30;;
80536;SDS011;69867;47.074;15.404;2023-12-20T10:42:19;20.73;;;9.65;;
80536;SDS011;69867;47.074;15.404;2023-12-20T10:44:46;26.45;;;11.13;;
80536;SDS011;69867;47.074;15.404;2023-12-20T10:47:12;20.98;;;9.68;;
80536;SDS011;69867;47.074;15.404;2023-12-20T10:49:38;19.83;;;10.52;;
80536;SDS011;69867;47.074;15.404;2023-12-20T10:52:05;20.92;;;9.77;;
80536;SDS011;69867;47.074;15.404;2023-12-20T10:54:31;26.60;;;11.32;;
80536;SDS011;69867;47.074;15.404;2023-12-20T10:56:57;18.23;;;10.45;;
80536;SDS011;69867;47.074;15.404;2023-12-20T10:59:23;21.63;;;10.02;;
80536;SDS011;69867;47.074;15.404;2023-12-20T11:01:50;24.15;;;11.15;;
80536;SDS011;69867;47.074;15.404;2023-12-20T11:04:19;20.40;;;9.65;;
80536;SDS011;69867;47.074;15.404;2023-12-20T11:07:07;17.67;;;9.63;;
80536;SDS011;69867;47.074;15.404;2023-12-20T11:09:41;15.95;;;8.48;;
80536;SDS011;69867;47.074;15.404;2023-12-20T11:13:01;17.88;;;9.68;;
80536;SDS011;69867;47.074;15.404;2023-12-20T11:15:16;20.92;;;9.50;;
80536;SDS011;69867;47.074;15.404;2023-12-20T11:17:44;18.92;;;9.52;;
80536;SDS011;69867;47.074;15.404;2023-12-20T11:20:10;21.52;;;10.25;;
80536;SDS011;69867;47.074;15.404;2023-12-20T11:22:36;18.08;;;9.38;;
80536;SDS011;69867;47.074;15.404;2023-12-20T11:25:05;16.83;;;9.10;;
80536;SDS011;69867;47.074;15.404;2023-12-20T11:27:32;19.70;;;8.95;;
80536;SDS011;69867;47.074;15.404;2023-12-20T11:29:58;17.58;;;8.73;;
80536;SDS011;69867;47.074;15.404;2023-12-20T11:34:50;19.35;;;9.35;;
80536;SDS011;69867;47.074;15.404;2023-12-20T11:37:16;21.00;;;9.85;;
80536;SDS011;69867;47.074;15.404;2023-12-20T11:39:44;27.33;;;12.20;;
80536;SDS011;69867;47.074;15.404;2023-12-20T11:42:09;22.85;;;11.05;;
80536;SDS011;69867;47.074;15.404;2023-12-20T11:44:36;24.40;;;12.20;;
80536;SDS011;69867;47.074;15.404;2023-12-20T11:47:01;19.75;;;10.68;;
80536;SDS011;69867;47.074;15.404;2023-12-20T11:49:27;25.40;;;10.93;;
80536;SDS011;69867;47.074;15.404;2023-12-20T11:51:52;23.40;;;12.70;;
80536;SDS011;69867;47.074;15.404;2023-12-20T11:54:18;23.13;;;11.82;;
80536;SDS011;69867;47.074;15.404;2023-12-20T11:56:43;27.58;;;12.20;;
80536;SDS011;69867;47.074;15.404;2023-12-20T11:59:08;20.02;;;11.35;;
80536;SDS011;69867;47.074;15.404;2023-12-20T12:01:34;18.42;;;10.10;;
80536;SDS011;69867;47.074;15.404;2023-12-20T12:04:03;21.02;;;10.32;;
80536;SDS011;69867;47.074;15.404;2023-12-20T12:06:29;19.77;;;9.55;;
80536;SDS011;69867;47.074;15.404;2023-12-20T12:08:54;19.75;;;10.38;;
80536;SDS011;69867;47.074;15.404;2023-12-20T12:11:20;18.52;;;9.23;;
80536;SDS011;69867;47.074;15.404;2023-12-20T12:13:45;15.82;;;8.18;;
80536;SDS011;69867;47.074;15.404;2023-12-20T12:16:10;16.88;;;8.68;;
80536;SDS011;69867;47.074;15.404;2023-12-20T12:18:36;19.73;;;9.55;;
80536;SDS011;69867;47.074;15.404;2023-12-20T12:21:01;15.60;;;8.70;;
80536;SDS011;69867;47.074;15.404;2023-12-20T12:23:27;18.83;;;9.07;;
80536;SDS011;69867;47.074;15.404;2023-12-20T12:25:52;18.25;;;9.57;;
80536;SDS011;69867;47.074;15.404;2023-12-20T12:28:18;18.50;;;9.48;;
80536;SDS011;69867;47.074;15.404;2023-12-20T12:30:43;22.20;;;10.38;;
80536;SDS011;69867;47.074;15.404;2023-12-20T12:33:21;19.25;;;10.20;;
80536;SDS011;69867;47.074;15.404;2023-12-20T12:35:46;21.40;;;10.98;;
80536;SDS011;69867;47.074;15.404;2023-12-20T12:38:13;19.35;;;9.50;;
80536;SDS011;69867;47.074;15.404;2023-12-20T12:40:38;17.50;;;9.70;;
80536;SDS011;69867;47.074;15.404;2023-12-20T12:43:03;19.85;;;10.52;;
80536;SDS011;69867;47.074;15.404;2023-12-20T12:45:29;22.10;;;9.82;;
80536;SDS011;69867;47.074;15.404;2023-12-20T12:47:54;19.48;;;9.73;;
80536;SDS011;69867;47.074;15.404;2023-12-20T12:50:19;23.55;;;10.45;;
80536;SDS011;69867;47.074;15.404;2023-12-20T12:52:45;21.73;;;9.63;;
80536;SDS011;69867;47.074;15.404;2023-12-20T12:55:10;20.40;;;9.63;;
80536;SDS011;69867;47.074;15.404;2023-12-20T12:57:36;21.55;;;9.90;;
80536;SDS011;69867;47.074;15.404;2023-12-20T13:00:01;31.35;;;12.65;;
80536;SDS011;69867;47.074;15.404;2023-12-20T13:02:27;22.80;;;11.43;;
80536;SDS011;69867;47.074;15.404;2023-12-20T13:04:52;24.75;;;12.52;;
80536;SDS011;69867;47.074;15.404;2023-12-20T13:07:17;25.85;;;11.45;;
80536;SDS011;69867;47.074;15.404;2023-12-20T13:09:43;25.25;;;13.20;;
80536;SDS011;69867;47.074;15.404;2023-12-20T13:12:08;26.65;;;12.25;;
80536;SDS011;69867;47.074;15.404;2023-12-20T13:14:34;23.45;;;11.57;;
80536;SDS011;69867;47.074;15.404;2023-12-20T13:17:00;23.60;;;11.85;;
80536;SDS011;69867;47.074;15.404;2023-12-20T13:19:26;24.27;;;11.68;;
80536;SDS011;69867;47.074;15.404;2023-12-20T13:21:51;20.90;;;10.75;;
80536;SDS011;69867;47.074;15.404;2023-12-20T13:24:17;24.92;;;11.48;;
80536;SDS011;69867;47.074;15.404;2023-12-20T13:26:42;24.23;;;11.45;;
80536;SDS011;69867;47.074;15.404;2023-12-20T13:29:07;19.08;;;11.02;;
80536;SDS011;69867;47.074;15.404;2023-12-20T13:31:33;21.23;;;10.80;;
80536;SDS011;69867;47.074;15.404;2023-12-20T13:33:58;19.30;;;10.13;;
80536;SDS011;69867;47.074;15.404;2023-12-20T13:36:23;18.65;;;9.60;;
80536;SDS011;69867;47.074;15.404;2023-12-20T13:38:49;22.10;;;10.45;;
80536;SDS011;69867;47.074;15.404;2023-12-20T13:41:14;17.67;;;9.95;;
80536;SDS011;69867;47.074;15.404;2023-12-20T13:43:40;17.92;;;9.50;;
80536;SDS011;69867;47.074;15.404;2023-12-20T13:46:05;17.63;;;8.65;;
80536;SDS011;69867;47.074;15.404;2023-12-20T13:48:30;19.73;;;10.75;;
80536;SDS011;69867;47.074;15.404;2023-12-20T13:50:56;18.55;;;10.07;;
80536;SDS011;69867;47.074;15.404;2023-12-20T13:53:21;18.30;;;9.35;;
80536;SDS011;69867;47.074;15.404;2023-12-20T13:55:46;17.70;;;9.13;;
80536;SDS011;69867;47.074;15.404;2023-12-20T13:58:12;18.08;;;8.63;;
80536;SDS011;69867;47.074;15.404;2023-12-20T14:00:37;20.80;;;9.18;;
80536;SDS011;69867;47.074;15.404;2023-12-20T14:03:03;23.60;;;11.10;;
80536;SDS011;69867;47.074;15.404;2023-12-20T14:05:30;27.17;;;12.07;;
80536;SDS011;69867;47.074;15.404;2023-12-20T14:07:56;27.20;;;12.35;;
80536;SDS011;69867;47.074;15.404;2023-12-20T14:10:21;25.40;;;12.20;;
80536;SDS011;69867;47.074;15.404;2023-12-20T14:12:46;23.65;;;11.38;;
80536;SDS011;69867;47.074;15.404;2023-12-20T14:15:12;22.55;;;10.77;;
80536;SDS011;69867;47.074;15.404;2023-12-20T14:17:38;24.40;;;12.27;;
80536;SDS011;69867;47.074;15.404;2023-12-20T14:20:05;28.58;;;11.05;;
80536;SDS011;69867;47.074;15.404;2023-12-20T14:22:33;23.17;;;11.18;;